sensor_id;sensor_type;location;lat;lon;timestamp;temperature;humidity
39777;DHT22;25453;48.162;14.510;2023-03-14T00:00:12;9.90;61.50
39777;DHT22;25453;48.162;14.510;2023-03-14T00:02:40;9.90;61.50
39777;DHT22;25453;48.162;14.510;2023-03-14T00:05:08;9.90;61.60
39777;DHT22;25453;48.162;14.510;2023-03-14T00:07:36;9.90;61.40
39777;DHT22;25453;48.162;14.510;2023-03-14T00:10:10;9.80;61.30
39777;DHT22;25453;48.162;14.510;2023-03-14T00:12:37;9.70;61.30
39777;DHT22;25453;48.162;14.510;2023-03-14T00:15:04;9.70;61.40
39777;DHT22;25453;48.162;14.510;2023-03-14T00:17:34;9.60;61.60
39777;DHT22;25453;48.162;14.510;2023-03-14T00:20:02;9.50;61.80
39777;DHT22;25453;48.162;14.510;2023-03-14T00:22:35;9.50;61.80
39777;DHT22;25453;48.162;14.510;2023-03-14T00:25:02;9.40;62.00
39777;DHT22;25453;48.162;14.510;2023-03-14T00:27:30;9.40;62.10
39777;DHT22;25453;48.162;14.510;2023-03-14T00:29:57;9.40;62.40
39777;DHT22;25453;48.162;14.510;2023-03-14T00:32:24;9.40;62.80
39777;DHT22;25453;48.162;14.510;2023-03-14T00:34:51;9.40;62.90
39777;DHT22;25453;48.162;14.510;2023-03-14T00:37:18;9.40;63.00
39777;DHT22;25453;48.162;14.510;2023-03-14T00:39:45;9.40;63.20
39777;DHT22;25453;48.162;14.510;2023-03-14T00:42:12;9.30;63.30
39777;DHT22;25453;48.162;14.510;2023-03-14T00:44:39;9.30;63.70
39777;DHT22;25453;48.162;14.510;2023-03-14T00:47:06;9.40;63.90
39777;DHT22;25453;48.162;14.510;2023-03-14T00:49:33;9.40;63.80
39777;DHT22;25453;48.162;14.510;2023-03-14T00:52:00;9.40;63.80
39777;DHT22;25453;48.162;14.510;2023-03-14T00:54:27;9.40;63.90
39777;DHT22;25453;48.162;14.510;2023-03-14T00:56:54;9.40;64.10
39777;DHT22;25453;48.162;14.510;2023-03-14T00:59:21;9.40;64.30
39777;DHT22;25453;48.162;14.510;2023-03-14T01:01:48;9.40;64.50
39777;DHT22;25453;48.162;14.510;2023-03-14T01:04:15;9.50;64.60
39777;DHT22;25453;48.162;14.510;2023-03-14T01:06:42;9.40;65.00
39777;DHT22;25453;48.162;14.510;2023-03-14T01:09:09;9.40;65.00
39777;DHT22;25453;48.162;14.510;2023-03-14T01:11:36;9.40;65.50
39777;DHT22;25453;48.162;14.510;2023-03-14T01:14:03;9.40;65.60
39777;DHT22;25453;48.162;14.510;2023-03-14T01:16:32;9.50;65.60
39777;DHT22;25453;48.162;14.510;2023-03-14T01:19:00;9.50;65.90
39777;DHT22;25453;48.162;14.510;2023-03-14T01:21:28;9.50;65.90
39777;DHT22;25453;48.162;14.510;2023-03-14T01:23:56;9.50;66.00
39777;DHT22;25453;48.162;14.510;2023-03-14T01:26:24;9.60;66.10
39777;DHT22;25453;48.162;14.510;2023-03-14T01:28:52;9.60;66.10
39777;DHT22;25453;48.162;14.510;2023-03-14T01:31:20;9.60;66.10
39777;DHT22;25453;48.162;14.510;2023-03-14T01:33:47;9.60;66.30
39777;DHT22;25453;48.162;14.510;2023-03-14T01:36:14;9.60;66.30
39777;DHT22;25453;48.162;14.510;2023-03-14T01:38:41;9.60;66.40
39777;DHT22;25453;48.162;14.510;2023-03-14T01:41:11;9.60;66.50
39777;DHT22;25453;48.162;14.510;2023-03-14T01:43:38;9.50;66.60
39777;DHT22;25453;48.162;14.510;2023-03-14T01:48:43;9.60;66.90
39777;DHT22;25453;48.162;14.510;2023-03-14T01:51:13;9.60;67.00
39777;DHT22;25453;48.162;14.510;2023-03-14T01:53:41;9.60;67.10
39777;DHT22;25453;48.162;14.510;2023-03-14T01:56:10;9.60;67.20
39777;DHT22;25453;48.162;14.510;2023-03-14T01:58:39;9.60;67.30
39777;DHT22;25453;48.162;14.510;2023-03-14T02:01:08;9.60;67.40
39777;DHT22;25453;48.162;14.510;2023-03-14T02:03:38;9.60;67.60
39777;DHT22;25453;48.162;14.510;2023-03-14T02:06:08;9.60;67.70
39777;DHT22;25453;48.162;14.510;2023-03-14T02:08:35;9.70;67.80
39777;DHT22;25453;48.162;14.510;2023-03-14T02:11:03;9.70;67.70
39777;DHT22;25453;48.162;14.510;2023-03-14T02:13:30;9.70;67.70
39777;DHT22;25453;48.162;14.510;2023-03-14T02:15:57;9.80;67.80
39777;DHT22;25453;48.162;14.510;2023-03-14T02:18:24;9.80;67.70
39777;DHT22;25453;48.162;14.510;2023-03-14T02:21:05;9.80;67.70
39777;DHT22;25453;48.162;14.510;2023-03-14T02:26:26;9.90;67.70
39777;DHT22;25453;48.162;14.510;2023-03-14T02:28:54;9.90;67.70
39777;DHT22;25453;48.162;14.510;2023-03-14T02:31:21;9.90;67.60
39777;DHT22;25453;48.162;14.510;2023-03-14T02:33:49;10.00;67.60
39777;DHT22;25453;48.162;14.510;2023-03-14T02:36:16;10.00;67.60
39777;DHT22;25453;48.162;14.510;2023-03-14T02:38:50;10.10;67.50
39777;DHT22;25453;48.162;14.510;2023-03-14T02:41:21;10.10;67.40
39777;DHT22;25453;48.162;14.510;2023-03-14T02:43:48;10.10;67.40
39777;DHT22;25453;48.162;14.510;2023-03-14T02:46:19;10.20;67.30
39777;DHT22;25453;48.162;14.510;2023-03-14T02:48:51;10.20;67.30
39777;DHT22;25453;48.162;14.510;2023-03-14T02:51:20;10.20;67.20
39777;DHT22;25453;48.162;14.510;2023-03-14T02:53:47;10.20;67.20
39777;DHT22;25453;48.162;14.510;2023-03-14T02:56:14;10.20;67.10
39777;DHT22;25453;48.162;14.510;2023-03-14T02:58:41;10.30;67.10
39777;DHT22;25453;48.162;14.510;2023-03-14T03:01:08;10.30;67.00
39777;DHT22;25453;48.162;14.510;2023-03-14T03:03:35;10.30;67.00
39777;DHT22;25453;48.162;14.510;2023-03-14T03:06:04;10.30;66.90
39777;DHT22;25453;48.162;14.510;2023-03-14T03:08:31;10.40;66.90
39777;DHT22;25453;48.162;14.510;2023-03-14T03:10:58;10.40;66.60
39777;DHT22;25453;48.162;14.510;2023-03-14T03:13:25;10.40;66.60
39777;DHT22;25453;48.162;14.510;2023-03-14T03:15:53;10.40;66.60
39777;DHT22;25453;48.162;14.510;2023-03-14T03:18:20;10.40;66.40
39777;DHT22;25453;48.162;14.510;2023-03-14T03:20:47;10.40;66.40
39777;DHT22;25453;48.162;14.510;2023-03-14T03:23:14;10.40;66.50
39777;DHT22;25453;48.162;14.510;2023-03-14T03:25:41;10.40;66.50
39777;DHT22;25453;48.162;14.510;2023-03-14T03:28:08;10.40;66.50
39777;DHT22;25453;48.162;14.510;2023-03-14T03:30:38;10.40;66.50
39777;DHT22;25453;48.162;14.510;2023-03-14T03:33:06;10.50;66.40
39777;DHT22;25453;48.162;14.510;2023-03-14T03:35:33;10.50;66.40
39777;DHT22;25453;48.162;14.510;2023-03-14T03:38:00;10.50;66.40
39777;DHT22;25453;48.162;14.510;2023-03-14T03:40:27;10.50;66.30
39777;DHT22;25453;48.162;14.510;2023-03-14T03:42:54;10.60;66.30
39777;DHT22;25453;48.162;14.510;2023-03-14T03:45:21;10.60;66.10
39777;DHT22;25453;48.162;14.510;2023-03-14T03:47:48;10.50;65.90
39777;DHT22;25453;48.162;14.510;2023-03-14T03:50:15;10.40;65.80
39777;DHT22;25453;48.162;14.510;2023-03-14T03:52:42;10.40;65.70
39777;DHT22;25453;48.162;14.510;2023-03-14T03:55:08;10.40;65.80
39777;DHT22;25453;48.162;14.510;2023-03-14T03:57:35;10.30;65.90
39777;DHT22;25453;48.162;14.510;2023-03-14T04:00:03;10.30;66.00
39777;DHT22;25453;48.162;14.510;2023-03-14T04:02:31;10.30;66.20
39777;DHT22;25453;48.162;14.510;2023-03-14T04:04:58;10.30;66.40
39777;DHT22;25453;48.162;14.510;2023-03-14T04:07:25;10.30;66.50
39777;DHT22;25453;48.162;14.510;2023-03-14T04:09:52;10.30;66.60
39777;DHT22;25453;48.162;14.510;2023-03-14T04:12:19;10.30;66.60
39777;DHT22;25453;48.162;14.510;2023-03-14T04:14:46;10.30;66.60
39777;DHT22;25453;48.162;14.510;2023-03-14T04:17:13;10.30;66.70
39777;DHT22;25453;48.162;14.510;2023-03-14T04:19:40;10.30;66.70
39777;DHT22;25453;48.162;14.510;2023-03-14T04:22:08;10.30;66.90
39777;DHT22;25453;48.162;14.510;2023-03-14T04:24:35;10.30;67.00
39777;DHT22;25453;48.162;14.510;2023-03-14T04:27:02;10.30;67.10
39777;DHT22;25453;48.162;14.510;2023-03-14T04:29:29;10.30;67.10
39777;DHT22;25453;48.162;14.510;2023-03-14T04:31:56;10.30;67.10
39777;DHT22;25453;48.162;14.510;2023-03-14T04:34:23;10.30;67.20
39777;DHT22;25453;48.162;14.510;2023-03-14T04:36:50;10.40;67.30
39777;DHT22;25453;48.162;14.510;2023-03-14T04:39:17;10.40;67.30
39777;DHT22;25453;48.162;14.510;2023-03-14T04:41:44;10.40;67.40
39777;DHT22;25453;48.162;14.510;2023-03-14T04:44:12;10.40;67.40
39777;DHT22;25453;48.162;14.510;2023-03-14T04:46:39;10.40;67.40
39777;DHT22;25453;48.162;14.510;2023-03-14T04:49:06;10.40;67.40
39777;DHT22;25453;48.162;14.510;2023-03-14T04:51:33;10.40;67.50
39777;DHT22;25453;48.162;14.510;2023-03-14T04:54:00;10.40;67.50
39777;DHT22;25453;48.162;14.510;2023-03-14T04:56:26;10.40;67.60
39777;DHT22;25453;48.162;14.510;2023-03-14T04:58:54;10.40;67.70
39777;DHT22;25453;48.162;14.510;2023-03-14T05:01:21;10.40;67.70
39777;DHT22;25453;48.162;14.510;2023-03-14T05:03:48;10.40;67.80
39777;DHT22;25453;48.162;14.510;2023-03-14T05:06:15;10.40;67.70
39777;DHT22;25453;48.162;14.510;2023-03-14T05:08:42;10.40;67.50
39777;DHT22;25453;48.162;14.510;2023-03-14T05:11:09;10.30;67.70
39777;DHT22;25453;48.162;14.510;2023-03-14T05:13:36;10.30;67.70
39777;DHT22;25453;48.162;14.510;2023-03-14T05:16:06;10.30;67.80
39777;DHT22;25453;48.162;14.510;2023-03-14T05:18:33;10.30;68.00
39777;DHT22;25453;48.162;14.510;2023-03-14T05:21:00;10.30;68.10
39777;DHT22;25453;48.162;14.510;2023-03-14T05:23:27;10.30;68.10
39777;DHT22;25453;48.162;14.510;2023-03-14T05:25:54;10.30;68.10
39777;DHT22;25453;48.162;14.510;2023-03-14T05:28:21;10.30;68.30
39777;DHT22;25453;48.162;14.510;2023-03-14T05:30:48;10.30;68.60
39777;DHT22;25453;48.162;14.510;2023-03-14T05:33:15;10.30;69.10
39777;DHT22;25453;48.162;14.510;2023-03-14T05:35:42;10.40;69.90
39777;DHT22;25453;48.162;14.510;2023-03-14T05:38:09;10.50;70.70
39777;DHT22;25453;48.162;14.510;2023-03-14T05:40:36;10.60;71.00
39777;DHT22;25453;48.162;14.510;2023-03-14T05:43:03;10.70;71.50
39777;DHT22;25453;48.162;14.510;2023-03-14T05:45:30;10.70;71.80
39777;DHT22;25453;48.162;14.510;2023-03-14T05:48:00;10.80;72.10
39777;DHT22;25453;48.162;14.510;2023-03-14T05:50:27;10.90;72.30
39777;DHT22;25453;48.162;14.510;2023-03-14T05:52:53;10.90;72.70
39777;DHT22;25453;48.162;14.510;2023-03-14T05:55:20;10.90;73.00
39777;DHT22;25453;48.162;14.510;2023-03-14T05:57:47;11.00;73.20
39777;DHT22;25453;48.162;14.510;2023-03-14T06:00:14;11.00;73.40
39777;DHT22;25453;48.162;14.510;2023-03-14T06:02:41;11.00;73.70
39777;DHT22;25453;48.162;14.510;2023-03-14T06:05:08;11.00;73.90
39777;DHT22;25453;48.162;14.510;2023-03-14T06:07:35;11.00;74.10
39777;DHT22;25453;48.162;14.510;2023-03-14T06:10:04;11.10;74.30
39777;DHT22;25453;48.162;14.510;2023-03-14T06:12:31;11.10;74.50
39777;DHT22;25453;48.162;14.510;2023-03-14T06:14:57;11.10;74.70
39777;DHT22;25453;48.162;14.510;2023-03-14T06:17:25;11.10;75.00
39777;DHT22;25453;48.162;14.510;2023-03-14T06:19:52;11.10;75.10
39777;DHT22;25453;48.162;14.510;2023-03-14T06:22:19;11.10;75.30
39777;DHT22;25453;48.162;14.510;2023-03-14T06:24:46;11.10;75.50
39777;DHT22;25453;48.162;14.510;2023-03-14T06:27:13;11.10;75.90
39777;DHT22;25453;48.162;14.510;2023-03-14T06:29:40;11.10;75.90
39777;DHT22;25453;48.162;14.510;2023-03-14T06:32:07;11.10;76.10
39777;DHT22;25453;48.162;14.510;2023-03-14T06:34:34;11.10;76.30
39777;DHT22;25453;48.162;14.510;2023-03-14T06:37:01;11.10;76.50
39777;DHT22;25453;48.162;14.510;2023-03-14T06:39:28;11.00;76.80
39777;DHT22;25453;48.162;14.510;2023-03-14T06:41:55;11.00;76.90
39777;DHT22;25453;48.162;14.510;2023-03-14T06:44:23;11.00;77.20
39777;DHT22;25453;48.162;14.510;2023-03-14T06:46:51;10.90;77.30
39777;DHT22;25453;48.162;14.510;2023-03-14T06:49:17;11.00;77.60
39777;DHT22;25453;48.162;14.510;2023-03-14T06:51:44;10.90;77.70
39777;DHT22;25453;48.162;14.510;2023-03-14T06:54:11;10.90;77.80
39777;DHT22;25453;48.162;14.510;2023-03-14T06:56:40;10.90;78.00
39777;DHT22;25453;48.162;14.510;2023-03-14T06:59:08;10.90;78.00
39777;DHT22;25453;48.162;14.510;2023-03-14T07:01:35;10.90;78.00
39777;DHT22;25453;48.162;14.510;2023-03-14T07:04:03;10.90;78.00
39777;DHT22;25453;48.162;14.510;2023-03-14T07:06:31;11.00;78.10
39777;DHT22;25453;48.162;14.510;2023-03-14T07:09:00;11.00;78.20
39777;DHT22;25453;48.162;14.510;2023-03-14T07:11:29;11.00;78.30
39777;DHT22;25453;48.162;14.510;2023-03-14T07:13:58;11.00;78.30
39777;DHT22;25453;48.162;14.510;2023-03-14T07:16:26;11.00;78.30
39777;DHT22;25453;48.162;14.510;2023-03-14T07:18:55;10.90;78.40
39777;DHT22;25453;48.162;14.510;2023-03-14T07:21:23;11.00;78.70
39777;DHT22;25453;48.162;14.510;2023-03-14T07:23:51;11.00;78.80
39777;DHT22;25453;48.162;14.510;2023-03-14T07:26:18;11.00;78.70
39777;DHT22;25453;48.162;14.510;2023-03-14T07:28:45;11.00;78.80
39777;DHT22;25453;48.162;14.510;2023-03-14T07:31:12;11.00;79.00
39777;DHT22;25453;48.162;14.510;2023-03-14T07:33:39;11.00;78.90
39777;DHT22;25453;48.162;14.510;2023-03-14T07:36:06;11.10;79.00
39777;DHT22;25453;48.162;14.510;2023-03-14T07:38:33;11.10;79.00
39777;DHT22;25453;48.162;14.510;2023-03-14T07:41:00;11.10;79.00
39777;DHT22;25453;48.162;14.510;2023-03-14T07:43:27;11.20;79.00
39777;DHT22;25453;48.162;14.510;2023-03-14T07:45:54;11.20;78.90
39777;DHT22;25453;48.162;14.510;2023-03-14T07:48:25;11.20;79.00
39777;DHT22;25453;48.162;14.510;2023-03-14T07:50:54;11.20;79.10
39777;DHT22;25453;48.162;14.510;2023-03-14T07:53:21;11.20;79.10
39777;DHT22;25453;48.162;14.510;2023-03-14T07:55:49;11.30;79.20
39777;DHT22;25453;48.162;14.510;2023-03-14T07:58:16;11.30;79.30
39777;DHT22;25453;48.162;14.510;2023-03-14T08:00:43;11.30;79.30
39777;DHT22;25453;48.162;14.510;2023-03-14T08:03:10;11.30;79.30
39777;DHT22;25453;48.162;14.510;2023-03-14T08:05:38;11.30;79.40
39777;DHT22;25453;48.162;14.510;2023-03-14T08:08:08;11.30;79.40
39777;DHT22;25453;48.162;14.510;2023-03-14T08:10:35;11.40;79.40
39777;DHT22;25453;48.162;14.510;2023-03-14T08:13:02;11.40;79.50
39777;DHT22;25453;48.162;14.510;2023-03-14T08:15:29;11.40;79.50
39777;DHT22;25453;48.162;14.510;2023-03-14T08:17:57;11.40;79.60
39777;DHT22;25453;48.162;14.510;2023-03-14T08:20:25;11.30;79.50
39777;DHT22;25453;48.162;14.510;2023-03-14T08:22:52;11.30;79.50
39777;DHT22;25453;48.162;14.510;2023-03-14T08:25:19;11.30;79.50
39777;DHT22;25453;48.162;14.510;2023-03-14T08:27:46;11.30;79.60
39777;DHT22;25453;48.162;14.510;2023-03-14T08:32:42;11.20;79.50
39777;DHT22;25453;48.162;14.510;2023-03-14T08:35:10;11.20;79.50
39777;DHT22;25453;48.162;14.510;2023-03-14T08:37:37;11.10;79.40
39777;DHT22;25453;48.162;14.510;2023-03-14T08:40:04;11.10;79.50
39777;DHT22;25453;48.162;14.510;2023-03-14T08:42:36;11.00;79.60
39777;DHT22;25453;48.162;14.510;2023-03-14T08:45:04;11.00;79.80
39777;DHT22;25453;48.162;14.510;2023-03-14T08:47:31;10.90;79.90
39777;DHT22;25453;48.162;14.510;2023-03-14T08:49:58;10.90;80.10
39777;DHT22;25453;48.162;14.510;2023-03-14T08:52:25;10.90;80.10
39777;DHT22;25453;48.162;14.510;2023-03-14T08:54:52;10.90;80.10
39777;DHT22;25453;48.162;14.510;2023-03-14T08:57:19;10.80;79.80
39777;DHT22;25453;48.162;14.510;2023-03-14T08:59:48;10.80;79.90
39777;DHT22;25453;48.162;14.510;2023-03-14T09:02:15;10.80;79.90
39777;DHT22;25453;48.162;14.510;2023-03-14T09:04:42;10.70;79.80
39777;DHT22;25453;48.162;14.510;2023-03-14T09:07:09;10.70;79.90
39777;DHT22;25453;48.162;14.510;2023-03-14T09:09:36;10.70;79.90
39777;DHT22;25453;48.162;14.510;2023-03-14T09:12:03;10.60;80.00
39777;DHT22;25453;48.162;14.510;2023-03-14T09:14:31;10.60;80.00
39777;DHT22;25453;48.162;14.510;2023-03-14T09:16:58;10.60;79.80
39777;DHT22;25453;48.162;14.510;2023-03-14T09:19:25;10.50;80.10
39777;DHT22;25453;48.162;14.510;2023-03-14T09:21:52;10.50;80.10
39777;DHT22;25453;48.162;14.510;2023-03-14T09:24:19;10.50;80.10
39777;DHT22;25453;48.162;14.510;2023-03-14T09:26:46;10.40;80.00
39777;DHT22;25453;48.162;14.510;2023-03-14T09:29:13;10.40;80.00
39777;DHT22;25453;48.162;14.510;2023-03-14T09:31:40;10.40;80.00
39777;DHT22;25453;48.162;14.510;2023-03-14T09:34:06;10.30;80.10
39777;DHT22;25453;48.162;14.510;2023-03-14T09:36:33;10.30;80.20
39777;DHT22;25453;48.162;14.510;2023-03-14T09:39:00;10.30;80.40
39777;DHT22;25453;48.162;14.510;2023-03-14T09:41:28;10.20;80.40
39777;DHT22;25453;48.162;14.510;2023-03-14T09:44:00;10.20;80.40
39777;DHT22;25453;48.162;14.510;2023-03-14T09:46:29;10.20;80.50
39777;DHT22;25453;48.162;14.510;2023-03-14T09:48:57;10.10;80.70
39777;DHT22;25453;48.162;14.510;2023-03-14T09:51:24;10.10;80.80
39777;DHT22;25453;48.162;14.510;2023-03-14T09:53:52;10.10;80.80
39777;DHT22;25453;48.162;14.510;2023-03-14T09:56:20;10.10;80.80
39777;DHT22;25453;48.162;14.510;2023-03-14T09:58:50;10.00;81.00
39777;DHT22;25453;48.162;14.510;2023-03-14T10:01:19;10.00;81.10
39777;DHT22;25453;48.162;14.510;2023-03-14T10:03:47;10.00;81.30
39777;DHT22;25453;48.162;14.510;2023-03-14T10:06:16;10.00;81.40
39777;DHT22;25453;48.162;14.510;2023-03-14T10:08:46;10.00;81.40
39777;DHT22;25453;48.162;14.510;2023-03-14T10:11:16;9.90;81.50
39777;DHT22;25453;48.162;14.510;2023-03-14T10:14:28;9.90;81.50
39777;DHT22;25453;48.162;14.510;2023-03-14T10:16:40;9.90;81.80
39777;DHT22;25453;48.162;14.510;2023-03-14T10:19:12;9.90;82.20
39777;DHT22;25453;48.162;14.510;2023-03-14T10:24:07;10.00;82.10
39777;DHT22;25453;48.162;14.510;2023-03-14T10:26:34;10.00;82.20
39777;DHT22;25453;48.162;14.510;2023-03-14T10:29:02;10.00;82.30
39777;DHT22;25453;48.162;14.510;2023-03-14T10:31:35;10.00;82.30
39777;DHT22;25453;48.162;14.510;2023-03-14T10:34:15;9.90;82.40
39777;DHT22;25453;48.162;14.510;2023-03-14T10:36:42;10.00;82.50
39777;DHT22;25453;48.162;14.510;2023-03-14T10:41:52;10.00;82.60
39777;DHT22;25453;48.162;14.510;2023-03-14T10:44:24;10.00;82.40
39777;DHT22;25453;48.162;14.510;2023-03-14T10:47:01;10.00;82.50
39777;DHT22;25453;48.162;14.510;2023-03-14T10:49:35;9.90;82.60
39777;DHT22;25453;48.162;14.510;2023-03-14T10:54:39;9.90;82.50
39777;DHT22;25453;48.162;14.510;2023-03-14T10:57:06;9.90;82.60
39777;DHT22;25453;48.162;14.510;2023-03-14T10:59:35;9.90;82.50
39777;DHT22;25453;48.162;14.510;2023-03-14T11:12:26;9.90;82.50
39777;DHT22;25453;48.162;14.510;2023-03-14T11:14:57;9.90;82.40
39777;DHT22;25453;48.162;14.510;2023-03-14T11:27:40;9.90;82.30
39777;DHT22;25453;48.162;14.510;2023-03-14T11:32:54;10.00;82.60
39777;DHT22;25453;48.162;14.510;2023-03-14T11:35:24;10.00;82.70
39777;DHT22;25453;48.162;14.510;2023-03-14T11:38:00;10.00;82.60
39777;DHT22;25453;48.162;14.510;2023-03-14T11:40:30;10.10;82.60
39777;DHT22;25453;48.162;14.510;2023-03-14T11:43:11;10.10;82.50
39777;DHT22;25453;48.162;14.510;2023-03-14T11:45:41;10.20;82.50
39777;DHT22;25453;48.162;14.510;2023-03-14T11:48:17;10.20;82.40
39777;DHT22;25453;48.162;14.510;2023-03-14T11:50:45;10.30;82.10
39777;DHT22;25453;48.162;14.510;2023-03-14T11:53:16;10.30;82.00
39777;DHT22;25453;48.162;14.510;2023-03-14T11:55:44;10.30;82.00
39777;DHT22;25453;48.162;14.510;2023-03-14T11:58:34;10.30;81.90
39777;DHT22;25453;48.162;14.510;2023-03-14T12:01:01;10.40;81.70
39777;DHT22;25453;48.162;14.510;2023-03-14T12:03:39;10.40;81.50
39777;DHT22;25453;48.162;14.510;2023-03-14T12:06:17;10.40;81.60
39777;DHT22;25453;48.162;14.510;2023-03-14T12:08:53;10.40;81.60
39777;DHT22;25453;48.162;14.510;2023-03-14T12:13:54;10.50;81.50
39777;DHT22;25453;48.162;14.510;2023-03-14T12:18:51;10.60;81.40
39777;DHT22;25453;48.162;14.510;2023-03-14T12:21:18;10.60;81.30
39777;DHT22;25453;48.162;14.510;2023-03-14T12:26:17;10.70;81.30
39777;DHT22;25453;48.162;14.510;2023-03-14T12:28:49;10.70;81.00
39777;DHT22;25453;48.162;14.510;2023-03-14T12:44:47;10.90;79.30
39777;DHT22;25453;48.162;14.510;2023-03-14T12:49:53;10.90;78.50
39777;DHT22;25453;48.162;14.510;2023-03-14T12:52:37;10.90;78.50
39777;DHT22;25453;48.162;14.510;2023-03-14T12:55:12;10.90;78.70
39777;DHT22;25453;48.162;14.510;2023-03-14T13:00:21;10.90;78.50
39777;DHT22;25453;48.162;14.510;2023-03-14T13:02:49;10.90;78.30
39777;DHT22;25453;48.162;14.510;2023-03-14T13:05:22;11.00;78.20
39777;DHT22;25453;48.162;14.510;2023-03-14T13:10:27;11.00;78.00
39777;DHT22;25453;48.162;14.510;2023-03-14T13:15:57;11.00;77.80
39777;DHT22;25453;48.162;14.510;2023-03-14T13:18:42;11.00;77.70
39777;DHT22;25453;48.162;14.510;2023-03-14T13:21:12;11.10;77.70
39777;DHT22;25453;48.162;14.510;2023-03-14T13:23:40;11.10;77.60
39777;DHT22;25453;48.162;14.510;2023-03-14T13:26:11;11.10;77.50
39777;DHT22;25453;48.162;14.510;2023-03-14T13:28:40;11.10;77.20
39777;DHT22;25453;48.162;14.510;2023-03-14T13:31:18;11.10;77.10
39777;DHT22;25453;48.162;14.510;2023-03-14T13:33:46;11.10;77.10
39777;DHT22;25453;48.162;14.510;2023-03-14T13:36:13;11.10;77.10
39777;DHT22;25453;48.162;14.510;2023-03-14T13:38:54;11.10;76.80
39777;DHT22;25453;48.162;14.510;2023-03-14T13:41:22;11.10;76.70
39777;DHT22;25453;48.162;14.510;2023-03-14T13:43:50;11.10;76.70
39777;DHT22;25453;48.162;14.510;2023-03-14T13:46:21;11.10;76.70
39777;DHT22;25453;48.162;14.510;2023-03-14T13:48:56;11.10;76.70
39777;DHT22;25453;48.162;14.510;2023-03-14T13:51:25;11.10;76.70
39777;DHT22;25453;48.162;14.510;2023-03-14T13:53:56;11.00;76.80
39777;DHT22;25453;48.162;14.510;2023-03-14T13:56:24;11.00;76.90
39777;DHT22;25453;48.162;14.510;2023-03-14T13:58:51;11.00;77.00
39777;DHT22;25453;48.162;14.510;2023-03-14T14:01:26;11.00;77.10
39777;DHT22;25453;48.162;14.510;2023-03-14T14:03:55;11.10;77.10
39777;DHT22;25453;48.162;14.510;2023-03-14T14:08:50;11.10;77.10
39777;DHT22;25453;48.162;14.510;2023-03-14T14:14:18;11.10;76.80
39777;DHT22;25453;48.162;14.510;2023-03-14T14:16:46;11.20;76.50
39777;DHT22;25453;48.162;14.510;2023-03-14T14:19:14;11.10;76.60
39777;DHT22;25453;48.162;14.510;2023-03-14T14:21:42;11.20;76.60
39777;DHT22;25453;48.162;14.510;2023-03-14T14:24:11;11.20;76.50
39777;DHT22;25453;48.162;14.510;2023-03-14T14:26:40;11.30;76.20
39777;DHT22;25453;48.162;14.510;2023-03-14T14:29:25;11.30;76.10
39777;DHT22;25453;48.162;14.510;2023-03-14T14:32:03;11.40;75.90
39777;DHT22;25453;48.162;14.510;2023-03-14T14:39:50;11.50;75.40
39777;DHT22;25453;48.162;14.510;2023-03-14T14:42:19;11.50;75.20
39777;DHT22;25453;48.162;14.510;2023-03-14T14:44:49;11.50;74.70
39777;DHT22;25453;48.162;14.510;2023-03-14T14:47:18;11.50;74.70
39777;DHT22;25453;48.162;14.510;2023-03-14T14:49:46;11.50;74.60
39777;DHT22;25453;48.162;14.510;2023-03-14T14:52:15;11.60;74.30
39777;DHT22;25453;48.162;14.510;2023-03-14T14:54:46;11.60;74.30
39777;DHT22;25453;48.162;14.510;2023-03-14T14:57:25;11.60;74.10
39777;DHT22;25453;48.162;14.510;2023-03-14T14:59:55;11.60;74.10
39777;DHT22;25453;48.162;14.510;2023-03-14T15:02:58;11.60;74.30
39777;DHT22;25453;48.162;14.510;2023-03-14T15:05:16;11.70;74.30
39777;DHT22;25453;48.162;14.510;2023-03-14T15:07:44;11.70;74.30
39777;DHT22;25453;48.162;14.510;2023-03-14T15:10:12;11.70;74.30
39777;DHT22;25453;48.162;14.510;2023-03-14T15:12:39;11.80;74.20
39777;DHT22;25453;48.162;14.510;2023-03-14T15:15:07;11.80;74.20
39777;DHT22;25453;48.162;14.510;2023-03-14T15:17:34;11.80;74.20
39777;DHT22;25453;48.162;14.510;2023-03-14T15:20:03;11.90;74.40
39777;DHT22;25453;48.162;14.510;2023-03-14T15:22:33;11.90;74.40
39777;DHT22;25453;48.162;14.510;2023-03-14T15:25:00;11.90;74.40
39777;DHT22;25453;48.162;14.510;2023-03-14T15:27:27;11.90;74.30
39777;DHT22;25453;48.162;14.510;2023-03-14T15:29:55;11.90;74.40
39777;DHT22;25453;48.162;14.510;2023-03-14T15:32:22;11.90;74.40
39777;DHT22;25453;48.162;14.510;2023-03-14T15:34:49;11.90;74.60
39777;DHT22;25453;48.162;14.510;2023-03-14T15:37:16;11.90;74.80
39777;DHT22;25453;48.162;14.510;2023-03-14T15:39:43;11.90;75.00
39777;DHT22;25453;48.162;14.510;2023-03-14T15:42:10;11.90;75.00
39777;DHT22;25453;48.162;14.510;2023-03-14T15:44:37;11.90;75.10
39777;DHT22;25453;48.162;14.510;2023-03-14T15:47:05;11.90;75.20
39777;DHT22;25453;48.162;14.510;2023-03-14T15:49:32;11.90;75.20
39777;DHT22;25453;48.162;14.510;2023-03-14T15:51:59;11.90;75.20
39777;DHT22;25453;48.162;14.510;2023-03-14T15:54:26;11.90;75.20
39777;DHT22;25453;48.162;14.510;2023-03-14T15:56:55;11.90;75.40
39777;DHT22;25453;48.162;14.510;2023-03-14T15:59:23;11.90;75.50
39777;DHT22;25453;48.162;14.510;2023-03-14T16:01:50;11.90;75.60
39777;DHT22;25453;48.162;14.510;2023-03-14T16:04:17;11.90;75.80
39777;DHT22;25453;48.162;14.510;2023-03-14T16:06:45;11.90;76.10
39777;DHT22;25453;48.162;14.510;2023-03-14T16:09:12;11.80;76.20
39777;DHT22;25453;48.162;14.510;2023-03-14T16:11:39;11.80;76.20
39777;DHT22;25453;48.162;14.510;2023-03-14T16:14:06;11.80;76.30
39777;DHT22;25453;48.162;14.510;2023-03-14T16:16:33;11.80;76.40
39777;DHT22;25453;48.162;14.510;2023-03-14T16:19:01;11.80;76.50
39777;DHT22;25453;48.162;14.510;2023-03-14T16:21:28;11.70;76.70
39777;DHT22;25453;48.162;14.510;2023-03-14T16:23:55;11.70;76.80
39777;DHT22;25453;48.162;14.510;2023-03-14T16:26:22;11.70;76.70
39777;DHT22;25453;48.162;14.510;2023-03-14T16:28:49;11.70;76.80
39777;DHT22;25453;48.162;14.510;2023-03-14T16:31:17;11.70;77.00
39777;DHT22;25453;48.162;14.510;2023-03-14T16:33:47;11.70;77.10
39777;DHT22;25453;48.162;14.510;2023-03-14T16:36:14;11.70;77.30
39777;DHT22;25453;48.162;14.510;2023-03-14T16:38:42;11.60;77.20
39777;DHT22;25453;48.162;14.510;2023-03-14T16:43:36;11.60;77.30
39777;DHT22;25453;48.162;14.510;2023-03-14T16:46:04;11.60;77.30
39777;DHT22;25453;48.162;14.510;2023-03-14T16:48:31;11.60;77.30
39777;DHT22;25453;48.162;14.510;2023-03-14T16:50:58;11.60;77.10